createdAt,value
2018-05-24T00:02:13.409Z,9.43
2018-05-24T00:04:41.679Z,12.27
2018-05-24T00:07:09.961Z,10.60
2018-05-24T00:09:38.230Z,8.33
2018-05-24T00:12:06.510Z,13.33
2018-05-24T00:14:34.790Z,10.50
2018-05-24T00:17:03.057Z,9.17
2018-05-24T00:19:31.354Z,12.17
2018-05-24T00:21:59.618Z,9.10
2018-05-24T00:24:27.890Z,9.73
2018-05-24T00:26:56.176Z,10.23
2018-05-24T00:29:24.443Z,8.87
2018-05-24T00:31:52.736Z,9.07
2018-05-24T00:34:20.999Z,9.53
2018-05-24T00:36:49.266Z,11.40
2018-05-24T00:39:17.553Z,9.30
2018-05-24T00:41:45.831Z,10.27
2018-05-24T00:44:14.115Z,9.90
2018-05-24T00:46:42.385Z,11.40
2018-05-24T00:49:10.661Z,11.90
2018-05-24T00:51:38.942Z,10.67
2018-05-24T00:54:07.214Z,10.80
2018-05-24T00:56:35.499Z,9.03
2018-05-24T00:59:03.774Z,8.33
2018-05-24T01:01:32.039Z,10.63
2018-05-24T01:04:00.317Z,9.47
2018-05-24T01:06:28.594Z,10.10
2018-05-24T01:08:56.871Z,13.23
2018-05-24T01:11:25.147Z,10.30
2018-05-24T01:13:53.418Z,7.77
2018-05-24T01:16:21.694Z,9.47
2018-05-24T01:18:49.974Z,8.83
2018-05-24T01:21:18.247Z,11.83
2018-05-24T01:23:46.539Z,10.97
2018-05-24T01:26:14.810Z,13.03
2018-05-24T01:28:43.089Z,10.00
2018-05-24T01:31:11.365Z,10.03
2018-05-24T01:33:39.657Z,10.47
2018-05-24T01:36:07.930Z,11.87
2018-05-24T01:38:36.202Z,11.33
2018-05-24T01:41:04.493Z,11.47
2018-05-24T01:43:32.766Z,10.03
2018-05-24T01:46:01.053Z,12.53
2018-05-24T01:48:29.322Z,13.17
2018-05-24T01:50:57.633Z,12.67
2018-05-24T01:53:25.907Z,9.83
2018-05-24T01:55:54.177Z,11.77
2018-05-24T01:58:22.462Z,9.07
2018-05-24T02:00:50.730Z,10.20
2018-05-24T02:03:19.014Z,11.53
2018-05-24T02:05:47.304Z,10.13
2018-05-24T02:08:15.607Z,12.57
2018-05-24T02:10:43.886Z,8.47
2018-05-24T02:13:12.155Z,10.20
2018-05-24T02:15:40.558Z,11.07
2018-05-24T02:18:08.818Z,14.70
2018-05-24T02:20:37.106Z,10.53
2018-05-24T02:23:05.385Z,11.43
2018-05-24T02:25:33.673Z,9.33
2018-05-24T02:28:01.942Z,9.90
2018-05-24T02:30:30.210Z,10.03
2018-05-24T02:32:58.489Z,8.77
2018-05-24T02:35:26.762Z,8.63
2018-05-24T02:37:55.038Z,8.70
2018-05-24T02:40:23.311Z,12.03
2018-05-24T02:42:51.602Z,13.03
2018-05-24T02:45:19.878Z,12.37
2018-05-24T02:47:49.826Z,12.73
2018-05-24T02:50:18.114Z,12.67
2018-05-24T02:52:46.406Z,16.53
2018-05-24T02:55:15.167Z,14.07
2018-05-24T02:57:43.430Z,10.80
2018-05-24T03:00:11.734Z,10.93
2018-05-24T03:02:40.010Z,9.83
2018-05-24T03:05:08.281Z,9.50
2018-05-24T03:07:36.565Z,12.37
2018-05-24T03:10:04.841Z,10.80
2018-05-24T03:12:33.129Z,12.27
2018-05-24T03:15:01.407Z,9.60
2018-05-24T03:17:29.694Z,8.30
2018-05-24T03:19:57.957Z,7.60
2018-05-24T03:22:26.234Z,11.47
2018-05-24T03:24:54.515Z,11.50
2018-05-24T03:27:22.793Z,12.80
2018-05-24T03:29:51.098Z,11.43
2018-05-24T03:32:19.966Z,14.70
2018-05-24T03:34:48.258Z,10.00
2018-05-24T03:37:16.557Z,19.57
2018-05-24T03:39:44.840Z,7.90
2018-05-24T03:42:13.105Z,11.37
2018-05-24T03:44:41.614Z,11.67
2018-05-24T03:47:09.882Z,13.17
2018-05-24T03:49:38.170Z,15.03
2018-05-24T03:52:06.495Z,12.40
2018-05-24T03:54:34.749Z,10.20
2018-05-24T03:57:03.031Z,15.07
2018-05-24T04:02:52.924Z,14.63
2018-05-24T04:05:21.293Z,12.37
2018-05-24T04:07:49.538Z,12.00
2018-05-24T04:10:17.814Z,10.47
2018-05-24T04:12:48.433Z,10.43
2018-05-24T04:15:16.705Z,11.50
2018-05-24T04:17:45.001Z,12.27
2018-05-24T04:20:13.273Z,15.53
2018-05-24T04:22:41.552Z,11.23
2018-05-24T04:25:09.837Z,13.90
2018-05-24T04:27:38.114Z,11.20
2018-05-24T04:30:06.410Z,12.47
2018-05-24T04:32:34.685Z,11.03
2018-05-24T04:35:02.965Z,15.20
2018-05-24T04:37:31.250Z,14.10
2018-05-24T04:39:59.533Z,14.77
2018-05-24T04:42:27.813Z,13.03
2018-05-24T04:44:56.128Z,17.00
2018-05-24T04:47:24.419Z,11.23
2018-05-24T04:49:52.744Z,11.77
2018-05-24T04:52:21.016Z,9.70
2018-05-24T04:54:49.395Z,10.17
2018-05-24T04:57:17.674Z,9.27
2018-05-24T04:59:45.950Z,9.77
2018-05-24T05:02:14.224Z,11.73
2018-05-24T05:04:43.882Z,10.63
2018-05-24T05:07:12.154Z,10.33
2018-05-24T05:09:41.006Z,11.23
2018-05-24T05:12:09.290Z,11.57
2018-05-24T05:14:37.634Z,11.50
2018-05-24T05:17:05.858Z,10.83
2018-05-24T05:19:34.233Z,11.07
2018-05-24T05:22:02.440Z,13.17
2018-05-24T05:24:30.717Z,10.77
2018-05-24T05:26:58.998Z,15.33
2018-05-24T05:29:27.286Z,14.83
2018-05-24T05:31:55.561Z,11.30
2018-05-24T05:34:23.854Z,10.53
2018-05-24T05:36:52.217Z,12.03
2018-05-24T05:39:20.434Z,11.37
2018-05-24T05:41:48.714Z,13.50
2018-05-24T05:44:16.986Z,13.80
2018-05-24T05:46:45.280Z,15.13
2018-05-24T05:49:15.574Z,12.00
2018-05-24T05:51:43.858Z,12.93
2018-05-24T05:54:12.137Z,13.03
2018-05-24T05:56:40.442Z,12.13
2018-05-24T05:59:08.734Z,11.13
2018-05-24T06:01:37.056Z,11.90
2018-05-24T06:04:05.331Z,11.93
2018-05-24T06:06:33.631Z,12.83
2018-05-24T06:09:01.920Z,10.87
2018-05-24T06:11:30.198Z,13.17
2018-05-24T06:13:58.677Z,11.83
2018-05-24T06:16:26.852Z,12.97
2018-05-24T06:18:55.130Z,12.37
2018-05-24T06:21:23.413Z,12.87
2018-05-24T06:23:51.691Z,12.23
2018-05-24T06:26:19.969Z,13.47
2018-05-24T06:28:48.241Z,12.17
2018-05-24T06:31:16.531Z,12.87
2018-05-24T06:33:44.814Z,11.03
2018-05-24T06:36:13.090Z,12.40
2018-05-24T06:38:41.374Z,10.67
2018-05-24T06:41:09.658Z,15.37
2018-05-24T06:43:37.941Z,12.93
2018-05-24T06:46:06.218Z,14.17
2018-05-24T06:48:34.521Z,11.57
2018-05-24T06:51:02.806Z,13.23
2018-05-24T06:53:31.090Z,10.77
2018-05-24T06:55:59.380Z,15.27
2018-05-24T06:58:27.661Z,13.17
2018-05-24T07:00:55.953Z,15.20
2018-05-24T07:03:24.278Z,15.20
2018-05-24T07:05:52.622Z,14.63
2018-05-24T07:08:20.861Z,16.03
2018-05-24T07:10:49.147Z,14.80
2018-05-24T07:13:17.442Z,15.37
2018-05-24T07:15:45.714Z,11.93
2018-05-24T07:18:13.997Z,13.23
2018-05-24T07:20:42.266Z,9.47
2018-05-24T07:23:10.557Z,10.80
2018-05-24T07:25:38.825Z,11.50
2018-05-24T07:28:07.101Z,13.43
2018-05-24T07:30:35.386Z,13.90
2018-05-24T07:33:03.666Z,12.63
2018-05-24T07:35:31.955Z,9.80
2018-05-24T07:38:00.246Z,8.07
2018-05-24T07:40:28.530Z,9.83
2018-05-24T07:42:56.811Z,7.47
2018-05-24T07:45:25.074Z,7.40
2018-05-24T07:47:53.361Z,8.17
2018-05-24T07:50:25.830Z,9.17
2018-05-24T07:52:54.094Z,11.57
2018-05-24T07:55:22.370Z,8.27
2018-05-24T07:57:50.649Z,12.07
2018-05-24T08:00:18.922Z,7.60
2018-05-24T08:02:47.212Z,11.80
2018-05-24T08:05:15.494Z,8.67
2018-05-24T08:07:43.771Z,9.03
2018-05-24T08:10:12.058Z,9.37
2018-05-24T08:12:40.326Z,9.83
2018-05-24T08:15:08.618Z,6.70
2018-05-24T08:17:36.885Z,8.63
2018-05-24T08:20:05.154Z,7.03
2018-05-24T08:22:33.534Z,8.10
2018-05-24T08:25:01.718Z,7.83
2018-05-24T08:27:30.030Z,6.50
2018-05-24T08:29:58.303Z,7.27
2018-05-24T08:32:26.590Z,7.20
2018-05-24T08:34:54.862Z,8.07
2018-05-24T08:37:23.136Z,7.87
2018-05-24T08:39:51.413Z,9.93
2018-05-24T08:42:20.364Z,6.53
2018-05-24T08:44:48.642Z,7.33
2018-05-24T08:47:16.948Z,6.50
2018-05-24T08:49:45.193Z,9.23
2018-05-24T08:52:13.488Z,7.60
2018-05-24T08:54:41.763Z,7.03
2018-05-24T08:57:10.038Z,8.10
2018-05-24T08:59:38.418Z,10.63
2018-05-24T09:02:06.693Z,8.40
2018-05-24T09:04:34.988Z,9.00
2018-05-24T09:07:03.278Z,10.07
2018-05-24T09:09:31.542Z,6.67
2018-05-24T09:11:59.809Z,7.93
2018-05-24T09:14:28.099Z,8.00
2018-05-24T09:17:06.298Z,9.20
2018-05-24T09:19:34.577Z,6.67
2018-05-24T09:22:02.854Z,8.17
2018-05-24T09:24:31.151Z,9.43
2018-05-24T09:26:59.419Z,7.23
2018-05-24T09:29:27.714Z,14.00
2018-05-24T09:31:55.974Z,7.73
2018-05-24T09:34:24.241Z,9.30
2018-05-24T09:36:52.538Z,9.10
2018-05-24T09:39:20.811Z,7.67
2018-05-24T09:41:49.136Z,7.63
2018-05-24T09:44:17.407Z,8.93
2018-05-24T09:46:45.678Z,9.10
2018-05-24T09:49:13.957Z,9.53
2018-05-24T09:51:42.234Z,9.20
2018-05-24T09:54:10.517Z,10.57
2018-05-24T09:56:38.786Z,7.57
2018-05-24T09:59:07.083Z,9.30
2018-05-24T10:01:35.358Z,11.13
2018-05-24T10:04:03.637Z,10.97
2018-05-24T10:06:31.928Z,10.77
2018-05-24T10:09:00.198Z,9.80
2018-05-24T10:11:28.478Z,10.57
2018-05-24T10:13:56.749Z,9.40
2018-05-24T10:16:25.118Z,9.10
2018-05-24T10:18:53.311Z,8.83
2018-05-24T10:21:21.596Z,10.40
2018-05-24T10:23:49.878Z,9.83
2018-05-24T10:26:18.162Z,7.93
2018-05-24T10:28:46.465Z,11.03
2018-05-24T10:31:14.745Z,8.70
2018-05-24T10:33:43.027Z,8.73
2018-05-24T10:36:11.285Z,8.73
2018-05-24T10:38:39.621Z,10.10
2018-05-24T10:41:07.908Z,10.30
2018-05-24T10:43:36.787Z,8.37
2018-05-24T10:46:05.075Z,10.23
2018-05-24T10:48:33.349Z,9.60
2018-05-24T10:51:02.625Z,9.33
2018-05-24T10:53:30.830Z,11.57
2018-05-24T10:55:59.177Z,10.50
2018-05-24T10:58:27.431Z,10.23
2018-05-24T11:00:55.699Z,9.57
2018-05-24T11:03:24.100Z,7.13
2018-05-24T11:05:52.246Z,10.73
2018-05-24T11:08:20.530Z,9.20
2018-05-24T11:10:48.817Z,9.17
2018-05-24T11:13:17.093Z,12.20
2018-05-24T11:15:45.377Z,9.77
2018-05-24T11:18:13.646Z,10.50
2018-05-24T11:20:41.935Z,8.53
2018-05-24T11:23:10.209Z,12.20
2018-05-24T11:25:38.497Z,9.50
2018-05-24T11:28:06.770Z,13.70
2018-05-24T11:30:35.046Z,12.43
2018-05-24T11:33:03.350Z,13.50
2018-05-24T11:38:27.425Z,10.90
2018-05-24T11:44:08.640Z,13.43
2018-05-24T11:46:39.032Z,16.00
2018-05-24T11:49:09.195Z,10.87
2018-05-24T11:51:43.151Z,14.43
2018-05-24T11:54:11.441Z,9.77
2018-05-24T11:56:39.712Z,12.93
2018-05-24T11:59:08.998Z,12.77
2018-05-24T12:01:37.298Z,11.93
2018-05-24T12:04:05.586Z,18.17
2018-05-24T12:06:33.874Z,14.43
2018-05-24T12:09:02.150Z,15.50
2018-05-24T12:11:30.439Z,17.60
2018-05-24T12:13:58.757Z,12.73
2018-05-24T12:16:27.065Z,16.07
2018-05-24T12:18:55.344Z,13.47
2018-05-24T12:21:23.637Z,12.23
2018-05-24T12:23:52.071Z,14.07
2018-05-24T12:26:20.221Z,15.27
2018-05-24T12:28:48.511Z,14.67
2018-05-24T12:31:16.787Z,14.53
2018-05-24T12:33:45.069Z,13.93
2018-05-24T12:36:13.345Z,11.60
2018-05-24T12:38:41.636Z,12.37
2018-05-24T12:41:09.953Z,11.17
2018-05-24T12:43:38.233Z,16.13
2018-05-24T12:46:06.522Z,12.70
2018-05-24T12:48:34.803Z,13.27
2018-05-24T12:51:03.096Z,14.47
2018-05-24T12:53:31.378Z,18.10
2018-05-24T12:55:59.662Z,11.80
2018-05-24T12:58:27.954Z,15.37
2018-05-24T13:00:56.246Z,13.30
2018-05-24T13:03:24.525Z,14.77
2018-05-24T13:05:52.806Z,11.60
2018-05-24T13:08:21.100Z,14.97
2018-05-24T13:10:49.369Z,14.90
2018-05-24T13:13:17.710Z,14.57
2018-05-24T13:15:45.990Z,13.80
2018-05-24T13:18:14.280Z,12.73
2018-05-24T13:20:42.570Z,13.10
2018-05-24T13:23:10.878Z,13.53
2018-05-24T13:25:39.157Z,15.07
2018-05-24T13:28:07.437Z,13.80
2018-05-24T13:30:35.747Z,19.47
2018-05-24T13:33:04.070Z,13.07
2018-05-24T13:35:32.354Z,14.27
2018-05-24T13:38:00.637Z,14.57
2018-05-24T13:40:28.965Z,13.90
2018-05-24T13:42:57.215Z,15.13
2018-05-24T13:45:25.509Z,16.37
2018-05-24T13:47:53.787Z,14.53
2018-05-24T13:50:22.066Z,13.40
2018-05-24T13:52:50.354Z,15.30
2018-05-24T13:55:18.637Z,14.13
2018-05-24T13:57:47.413Z,13.57
2018-05-24T14:00:15.710Z,16.30
2018-05-24T14:02:44.017Z,13.97
2018-05-24T14:05:12.293Z,11.63
2018-05-24T14:07:40.577Z,11.90
2018-05-24T14:10:08.874Z,11.57
2018-05-24T14:12:37.158Z,18.13
2018-05-24T14:15:05.448Z,11.17
2018-05-24T14:17:33.837Z,12.17
2018-05-24T14:20:02.125Z,10.90
2018-05-24T14:22:30.409Z,14.43
2018-05-24T14:24:58.702Z,12.90
2018-05-24T14:27:26.985Z,13.10
2018-05-24T14:29:55.277Z,12.40
2018-05-24T14:32:23.553Z,11.37
2018-05-24T14:34:51.837Z,12.37
2018-05-24T14:37:20.121Z,12.63
2018-05-24T14:39:48.397Z,11.40
2018-05-24T14:42:16.685Z,12.03
2018-05-24T14:44:44.960Z,11.27
2018-05-24T14:47:13.245Z,13.33
2018-05-24T14:49:41.945Z,11.70
2018-05-24T14:52:10.297Z,12.37
2018-05-24T14:54:38.576Z,12.20
2018-05-24T14:57:06.854Z,13.07
2018-05-24T14:59:35.139Z,13.80
2018-05-24T15:02:03.409Z,10.90
2018-05-24T15:04:31.706Z,10.77
2018-05-24T15:07:00.066Z,12.27
2018-05-24T15:09:28.350Z,10.47
2018-05-24T15:11:56.617Z,10.47
2018-05-24T15:14:24.909Z,10.67
2018-05-24T15:16:53.187Z,11.50
2018-05-24T15:19:21.459Z,9.60
2018-05-24T15:21:49.738Z,10.37
2018-05-24T15:24:18.010Z,12.07
2018-05-24T15:26:46.298Z,10.37
2018-05-24T15:29:14.570Z,12.60
2018-05-24T15:31:42.853Z,11.50
2018-05-24T15:34:11.122Z,9.37
2018-05-24T15:36:39.407Z,13.23
2018-05-24T15:39:07.702Z,13.47
2018-05-24T15:41:35.977Z,9.70
2018-05-24T15:44:04.277Z,12.90
2018-05-24T15:46:32.617Z,11.40
2018-05-24T15:49:00.866Z,11.07
2018-05-24T15:51:29.135Z,9.93
2018-05-24T15:53:57.425Z,12.57
2018-05-24T15:56:25.697Z,11.67
2018-05-24T15:58:53.970Z,10.97
2018-05-24T16:01:22.250Z,9.97
2018-05-24T16:03:50.526Z,12.20
2018-05-24T16:06:18.804Z,11.83
2018-05-24T16:08:47.085Z,11.70
2018-05-24T16:11:15.382Z,13.40
2018-05-24T16:13:43.657Z,12.00
2018-05-24T16:16:12.242Z,13.77
2018-05-24T16:18:40.530Z,11.20
2018-05-24T16:21:08.814Z,10.80
2018-05-24T16:23:37.106Z,9.67
2018-05-24T16:26:05.389Z,10.97
2018-05-24T16:28:33.713Z,11.63
2018-05-24T16:31:01.967Z,11.60
2018-05-24T16:33:30.250Z,12.80
2018-05-24T16:35:58.538Z,12.50
2018-05-24T16:38:26.822Z,13.53
2018-05-24T16:40:55.115Z,10.90
2018-05-24T16:43:23.377Z,12.67
2018-05-24T16:45:51.686Z,12.73
2018-05-24T16:48:20.035Z,11.40
2018-05-24T16:50:48.319Z,9.73
2018-05-24T16:53:16.602Z,10.87
2018-05-24T16:55:44.873Z,11.13
2018-05-24T16:58:13.169Z,11.20
2018-05-24T17:00:41.447Z,8.87
2018-05-24T17:03:09.734Z,9.17
2018-05-24T17:05:38.019Z,9.60
2018-05-24T17:08:06.306Z,9.10
2018-05-24T17:10:34.687Z,10.17
2018-05-24T17:13:03.026Z,9.23
2018-05-24T17:15:31.306Z,9.07
2018-05-24T17:17:59.581Z,8.77
2018-05-24T17:20:27.878Z,8.50
2018-05-24T17:22:56.149Z,7.67
2018-05-24T17:25:24.452Z,7.80
2018-05-24T17:27:52.741Z,6.73
2018-05-24T17:30:21.053Z,7.50
2018-05-24T17:32:49.337Z,8.43
2018-05-24T17:35:17.598Z,8.73
2018-05-24T17:37:45.889Z,7.70
2018-05-24T17:40:14.157Z,6.10
2018-05-24T17:42:42.434Z,7.73
2018-05-24T17:45:10.713Z,7.50
2018-05-24T17:47:38.978Z,9.07
2018-05-24T17:50:07.394Z,7.03
2018-05-24T17:52:35.658Z,7.27
2018-05-24T17:55:03.987Z,6.73
2018-05-24T17:57:32.227Z,9.40
2018-05-24T18:00:00.502Z,6.13
2018-05-24T18:02:28.795Z,6.13
2018-05-24T18:04:57.072Z,7.70
2018-05-24T18:07:25.364Z,7.17
2018-05-24T18:09:53.654Z,5.73
2018-05-24T18:12:21.962Z,6.97
2018-05-24T18:14:50.287Z,6.13
2018-05-24T18:17:18.509Z,6.07
2018-05-24T18:19:46.810Z,5.30
2018-05-24T18:22:20.807Z,6.40
2018-05-24T18:24:49.109Z,7.17
2018-05-24T18:27:17.402Z,7.03
2018-05-24T18:29:45.721Z,6.80
2018-05-24T18:32:13.993Z,7.33
2018-05-24T18:34:42.274Z,5.93
2018-05-24T18:37:10.581Z,7.50
2018-05-24T18:39:38.869Z,7.97
2018-05-24T18:42:07.150Z,8.73
2018-05-24T18:44:35.461Z,8.40
2018-05-24T18:47:03.742Z,7.20
2018-05-24T18:49:32.021Z,8.67
2018-05-24T18:52:00.304Z,6.97
2018-05-24T18:54:28.581Z,7.00
2018-05-24T18:56:56.857Z,6.37
2018-05-24T18:59:25.148Z,10.10
2018-05-24T19:01:53.446Z,5.63
2018-05-24T19:04:21.697Z,8.20
2018-05-24T19:06:50.137Z,5.97
2018-05-24T19:09:18.402Z,5.83
2018-05-24T19:11:46.685Z,5.13
2018-05-24T19:14:14.994Z,6.97
2018-05-24T19:16:43.277Z,6.37
2018-05-24T19:19:11.541Z,5.47
2018-05-24T19:21:39.830Z,8.63
2018-05-24T19:24:08.094Z,5.93
2018-05-24T19:26:36.399Z,6.00
2018-05-24T19:29:04.645Z,5.40
2018-05-24T19:31:32.905Z,7.40
2018-05-24T19:34:01.202Z,5.87
2018-05-24T19:36:29.470Z,8.67
2018-05-24T19:38:57.765Z,5.80
2018-05-24T19:41:26.033Z,6.53
2018-05-24T19:43:54.311Z,5.50
2018-05-24T19:46:22.591Z,5.67
2018-05-24T19:48:50.904Z,6.70
2018-05-24T19:51:19.174Z,4.93
2018-05-24T19:53:47.445Z,5.30
2018-05-24T19:56:15.805Z,5.93
2018-05-24T19:58:44.125Z,6.20
2018-05-24T20:01:12.412Z,4.40
2018-05-24T20:03:40.705Z,6.57
2018-05-24T20:06:08.977Z,4.53
2018-05-24T20:08:37.266Z,5.50
2018-05-24T20:11:05.547Z,4.40
2018-05-24T20:13:33.809Z,4.70
2018-05-24T20:16:02.090Z,5.53
2018-05-24T20:18:30.360Z,5.37
2018-05-24T20:20:58.664Z,6.30
2018-05-24T20:23:27.038Z,6.27
2018-05-24T20:25:55.302Z,5.10
2018-05-24T20:28:23.578Z,5.53
2018-05-24T20:30:51.865Z,5.40
2018-05-24T20:33:20.178Z,5.20
2018-05-24T20:35:48.458Z,4.93
2018-05-24T20:38:16.726Z,6.23
2018-05-24T20:40:45.039Z,4.80
2018-05-24T20:43:13.305Z,5.03
2018-05-24T20:45:41.590Z,6.37
2018-05-24T20:48:09.871Z,5.63
2018-05-24T20:50:38.182Z,9.20
2018-05-24T20:53:06.430Z,8.60
2018-05-24T20:55:34.714Z,8.70
2018-05-24T20:58:03.039Z,8.50
2018-05-24T21:00:31.303Z,8.30
2018-05-24T21:02:59.569Z,10.20
2018-05-24T21:05:27.989Z,9.90
2018-05-24T21:07:56.265Z,9.70
2018-05-24T21:10:24.566Z,10.37
2018-05-24T21:12:52.839Z,10.07
2018-05-24T21:15:21.119Z,9.27
2018-05-24T21:17:49.408Z,9.77
2018-05-24T21:20:17.687Z,12.37
2018-05-24T21:22:45.982Z,10.10
2018-05-24T21:25:14.263Z,11.50
2018-05-24T21:27:42.531Z,11.00
2018-05-24T21:30:10.815Z,7.43
2018-05-24T21:32:39.080Z,9.80
2018-05-24T21:35:07.363Z,8.10
2018-05-24T21:37:35.630Z,8.97
2018-05-24T21:40:03.931Z,10.37
2018-05-24T21:42:32.294Z,9.83
2018-05-24T21:45:00.600Z,8.27
2018-05-24T21:47:28.837Z,9.53
2018-05-24T21:49:57.105Z,6.83
2018-05-24T21:52:25.391Z,8.20
2018-05-24T21:54:53.873Z,7.13
2018-05-24T21:57:22.158Z,10.73
2018-05-24T21:59:50.425Z,10.77
2018-05-24T22:02:18.707Z,7.27
2018-05-24T22:04:46.984Z,8.57
2018-05-24T22:07:15.258Z,9.30
2018-05-24T22:09:43.537Z,7.50
2018-05-24T22:12:11.802Z,9.47
2018-05-24T22:14:40.086Z,9.97
2018-05-24T22:17:08.376Z,9.80
2018-05-24T22:19:36.644Z,8.40
2018-05-24T22:22:04.917Z,9.40
2018-05-24T22:24:33.190Z,9.70
2018-05-24T22:27:01.471Z,10.43
2018-05-24T22:29:29.798Z,9.00
2018-05-24T22:31:58.039Z,9.70
2018-05-24T22:34:26.314Z,11.70
2018-05-24T22:36:54.578Z,12.33
2018-05-24T22:39:22.866Z,10.67
2018-05-24T22:41:51.146Z,11.17
2018-05-24T22:44:19.438Z,10.50
2018-05-24T22:46:47.709Z,12.87
2018-05-24T22:49:15.989Z,12.63
2018-05-24T22:51:44.273Z,11.50
2018-05-24T22:54:12.591Z,12.50
2018-05-24T22:56:40.879Z,12.43
2018-05-24T22:59:09.149Z,10.73
2018-05-24T23:01:37.446Z,9.83
2018-05-24T23:04:05.716Z,9.03
2018-05-24T23:06:33.986Z,10.17
2018-05-24T23:09:02.270Z,10.90
2018-05-24T23:11:30.537Z,9.30
2018-05-24T23:13:58.813Z,8.53
2018-05-24T23:16:27.086Z,10.70
2018-05-24T23:18:55.373Z,8.77
2018-05-24T23:21:23.646Z,11.67
2018-05-24T23:23:51.919Z,11.77
2018-05-24T23:26:20.202Z,11.73
2018-05-24T23:28:48.479Z,10.73
2018-05-24T23:31:16.778Z,11.27
2018-05-24T23:33:45.062Z,11.67
2018-05-24T23:36:13.354Z,10.00
2018-05-24T23:38:41.676Z,10.60
2018-05-24T23:41:09.906Z,9.47
2018-05-24T23:43:38.189Z,13.17
2018-05-24T23:46:06.471Z,12.33
2018-05-24T23:48:34.755Z,9.93
2018-05-24T23:51:03.040Z,12.77
2018-05-24T23:53:31.334Z,13.20
2018-05-24T23:55:59.626Z,12.87
2018-05-24T23:58:27.898Z,11.67
